OGD - Ogden Hinckley

Pirep is a free, collaborative database of all public and private airports located within the United States. All pilots are welcome to contribute, edit, and improve any airport they have local knowledge about, no registration required.
Uploaded photos will be licensed under a CC BY-SA 4.0 license. Please only upload photos you have the rights to use.
Tags
Public
Food
Flying Clubs
Events
METAR / TAF
Edit Tags
Camping
Lodging
Car Rental
Bicycles
Swimming
Golfing
Fishing
Hot Springs
Museum
Airpark
Upcoming Events
*
*
*

Where exactly on/near the airport is this event taking place?

Is there a webpage with more information for this event?

Who should be contacted for more information?

What is this event all about?

Repeat every
Description
Last updated: 2023-05-19 21:50:14 MDT
Transient Parking
Fuel Location
Landing & Tie-down Fees
Crew Car Availability
Flying Clubs
Last updated: 2023-11-14 21:11:00 MST
WiFi Access
Airport Statistics
Location: Ogden, UT
Elevation: 4,472ft
Sectional: Salt Lake City
Activation date: Dec 1941
Fuel: 100, 100LL, A1+, J (prices)
Runway 03/21: 8,107ft
Runway 17/35: 5,195ft
Access: Open to the public
Current Weather — VFR
  • Weather data is strictly informational and not for flight planning purposes.
  • METAR
    2024-05-28 16:53:00 MDT
    Ceiling Wind Temperature Dewpoint Weather Visbility
    Sky clear 160° @ 12kt 87°F 33°F N/A 10SM
    Raw: KOGD 282253Z 16012KT 10SM CLR 31/01 A2999 RMK AO2 PK WND 20030/2212 SLP099 T03110011
  • TAF
    2024-05-28 13:00:00 MDT – 2024-05-28 15:00:00 MDT
    Ceiling Wind Weather Visbility
    15,000ft 330° @ 6kt N/A 6SM
    Clouds: Scattered @ 12,000ft, Broken @ 15,000ft
    Raw: KOGD 281929Z 2819/2918 33006KT P6SM SCT120 BKN150 FM282100 24007KT P6SM SCT090 BKN120 FM290200 17011KT P6SM FEW120
  • TAF
    2024-05-28 15:00:00 MDT – 2024-05-28 20:00:00 MDT
    Ceiling Wind Weather Visbility
    12,000ft 240° @ 7kt N/A 6SM
    Clouds: Scattered @ 9,000ft, Broken @ 12,000ft
    Raw: KOGD 281929Z 2819/2918 33006KT P6SM SCT120 BKN150 FM282100 24007KT P6SM SCT090 BKN120 FM290200 17011KT P6SM FEW120
  • TAF
    2024-05-28 20:00:00 MDT – 2024-05-29 12:00:00 MDT
    Ceiling Wind Weather Visbility
    Sky clear 170° @ 11kt N/A 6SM
    Clouds: Few @ 12,000ft
    Raw: KOGD 281929Z 2819/2918 33006KT P6SM SCT120 BKN150 FM282100 24007KT P6SM SCT090 BKN120 FM290200 17011KT P6SM FEW120
Click/tap to add an annotation marker to the map
Airport Webcams
No webcams added yet.
Direct links to live image URLs will be displayed inline on this page. URLs to separate webpages will be linked to.
URL:
Direct links to live image URLs will be displayed inline on this page. URLs to separate webpages will be linked to.
URL:
Remarks
  • Clsd to acft ops with more than 30 psgr seats exc ppr; mnm 6 hr ppr, call amgr 801-629-8223/336-7459/710-3706.
  • No multiple apchs. no practice apchs - full stop landings only from 2200-0700.
  • Parachute jumping on ne portion of airport east of twy a.
  • No snow removal after atct closes.
  • Hvy vol of military acft flying over ogden arpt at 5700-6300 ft msl, enroute to hill afb.
Comments
Leave a comment What was your experience like at this airport?